sensor_id;sensor_type;location;lat;lon;timestamp;P1;durP1;ratioP1;P2;durP2;ratioP2
5650;SDS011;40241;52.684;9.758;2024-03-23T00:53:38;8.53;;;3.60;;
5650;SDS011;40241;52.684;9.758;2024-03-23T00:56:04;6.60;;;3.03;;
5650;SDS011;40241;52.684;9.758;2024-03-23T00:58:30;9.30;;;3.10;;
5650;SDS011;40241;52.684;9.758;2024-03-23T01:00:55;11.33;;;3.50;;
5650;SDS011;40241;52.684;9.758;2024-03-23T01:03:20;12.10;;;3.30;;
5650;SDS011;40241;52.684;9.758;2024-03-23T01:05:46;11.63;;;3.60;;
5650;SDS011;40241;52.684;9.758;2024-03-23T01:08:11;5.90;;;3.30;;
5650;SDS011;40241;52.684;9.758;2024-03-23T01:10:36;6.37;;;3.13;;
5650;SDS011;40241;52.684;9.758;2024-03-23T01:13:02;15.73;;;3.53;;
5650;SDS011;40241;52.684;9.758;2024-03-23T01:15:27;6.97;;;3.20;;
5650;SDS011;40241;52.684;9.758;2024-03-23T01:17:52;6.40;;;2.83;;
5650;SDS011;40241;52.684;9.758;2024-03-23T01:20:18;5.23;;;3.10;;
5650;SDS011;40241;52.684;9.758;2024-03-23T01:22:43;8.13;;;3.17;;
5650;SDS011;40241;52.684;9.758;2024-03-23T01:25:08;6.73;;;2.50;;
5650;SDS011;40241;52.684;9.758;2024-03-23T01:27:34;13.20;;;3.07;;
5650;SDS011;40241;52.684;9.758;2024-03-23T01:29:59;11.10;;;3.10;;
5650;SDS011;40241;52.684;9.758;2024-03-23T01:32:25;9.40;;;3.27;;
5650;SDS011;40241;52.684;9.758;2024-03-23T01:34:50;13.70;;;2.90;;
5650;SDS011;40241;52.684;9.758;2024-03-23T01:37:15;8.77;;;2.90;;
5650;SDS011;40241;52.684;9.758;2024-03-23T01:39:40;9.70;;;3.00;;
5650;SDS011;40241;52.684;9.758;2024-03-23T01:42:06;5.57;;;2.70;;
5650;SDS011;40241;52.684;9.758;2024-03-23T01:44:31;5.80;;;3.00;;
5650;SDS011;40241;52.684;9.758;2024-03-23T01:46:56;5.87;;;2.53;;
5650;SDS011;40241;52.684;9.758;2024-03-23T01:49:22;7.13;;;2.70;;
5650;SDS011;40241;52.684;9.758;2024-03-23T01:51:47;6.53;;;2.30;;
5650;SDS011;40241;52.684;9.758;2024-03-23T01:54:12;8.63;;;2.83;;
5650;SDS011;40241;52.684;9.758;2024-03-23T01:56:38;4.40;;;2.40;;
5650;SDS011;40241;52.684;9.758;2024-03-23T01:59:04;11.30;;;3.27;;
5650;SDS011;40241;52.684;9.758;2024-03-23T02:01:30;5.33;;;2.67;;
5650;SDS011;40241;52.684;9.758;2024-03-23T02:03:55;5.63;;;2.93;;
5650;SDS011;40241;52.684;9.758;2024-03-23T02:06:21;9.23;;;2.80;;
5650;SDS011;40241;52.684;9.758;2024-03-23T02:08:47;5.90;;;2.50;;
5650;SDS011;40241;52.684;9.758;2024-03-23T02:11:13;8.90;;;2.40;;
5650;SDS011;40241;52.684;9.758;2024-03-23T02:13:39;6.23;;;3.00;;
5650;SDS011;40241;52.684;9.758;2024-03-23T02:16:05;11.23;;;3.17;;
5650;SDS011;40241;52.684;9.758;2024-03-23T02:18:31;11.13;;;3.13;;
5650;SDS011;40241;52.684;9.758;2024-03-23T02:20:57;8.83;;;2.90;;
5650;SDS011;40241;52.684;9.758;2024-03-23T02:23:22;7.73;;;2.50;;
5650;SDS011;40241;52.684;9.758;2024-03-23T02:25:49;12.23;;;3.00;;
5650;SDS011;40241;52.684;9.758;2024-03-23T02:28:14;8.13;;;2.77;;
5650;SDS011;40241;52.684;9.758;2024-03-23T02:30:40;5.50;;;2.33;;
5650;SDS011;40241;52.684;9.758;2024-03-23T02:33:05;7.43;;;2.67;;
5650;SDS011;40241;52.684;9.758;2024-03-23T02:35:30;6.97;;;2.97;;
5650;SDS011;40241;52.684;9.758;2024-03-23T02:37:56;8.43;;;2.40;;
5650;SDS011;40241;52.684;9.758;2024-03-23T02:40:22;4.43;;;2.47;;
5650;SDS011;40241;52.684;9.758;2024-03-23T02:42:48;6.57;;;3.17;;
5650;SDS011;40241;52.684;9.758;2024-03-23T02:45:14;5.10;;;2.53;;
5650;SDS011;40241;52.684;9.758;2024-03-23T02:47:39;4.73;;;2.80;;
5650;SDS011;40241;52.684;9.758;2024-03-23T02:50:04;4.10;;;2.50;;
5650;SDS011;40241;52.684;9.758;2024-03-23T02:52:30;5.00;;;2.70;;
5650;SDS011;40241;52.684;9.758;2024-03-23T02:54:56;6.87;;;2.70;;
5650;SDS011;40241;52.684;9.758;2024-03-23T02:57:21;6.00;;;2.70;;
5650;SDS011;40241;52.684;9.758;2024-03-23T02:59:47;9.83;;;3.30;;
5650;SDS011;40241;52.684;9.758;2024-03-23T03:02:12;7.37;;;2.80;;
5650;SDS011;40241;52.684;9.758;2024-03-23T03:04:38;5.30;;;2.70;;
5650;SDS011;40241;52.684;9.758;2024-03-23T03:07:04;6.10;;;3.10;;
5650;SDS011;40241;52.684;9.758;2024-03-23T03:09:29;6.27;;;2.80;;
5650;SDS011;40241;52.684;9.758;2024-03-23T03:11:55;4.97;;;3.00;;
5650;SDS011;40241;52.684;9.758;2024-03-23T03:14:20;5.97;;;3.60;;
5650;SDS011;40241;52.684;9.758;2024-03-23T03:16:45;7.40;;;3.80;;
5650;SDS011;40241;52.684;9.758;2024-03-23T03:19:11;8.30;;;3.57;;
5650;SDS011;40241;52.684;9.758;2024-03-23T03:21:36;7.40;;;3.33;;
5650;SDS011;40241;52.684;9.758;2024-03-23T03:24:02;5.10;;;3.70;;
5650;SDS011;40241;52.684;9.758;2024-03-23T03:26:28;7.50;;;3.77;;
5650;SDS011;40241;52.684;9.758;2024-03-23T03:28:53;8.00;;;3.50;;
5650;SDS011;40241;52.684;9.758;2024-03-23T03:31:18;6.90;;;4.30;;
5650;SDS011;40241;52.684;9.758;2024-03-23T03:33:44;10.43;;;4.73;;
5650;SDS011;40241;52.684;9.758;2024-03-23T03:36:10;7.80;;;4.40;;
5650;SDS011;40241;52.684;9.758;2024-03-23T03:38:36;4.83;;;3.30;;
5650;SDS011;40241;52.684;9.758;2024-03-23T03:41:01;7.33;;;4.17;;
5650;SDS011;40241;52.684;9.758;2024-03-23T03:43:27;8.00;;;4.10;;
5650;SDS011;40241;52.684;9.758;2024-03-23T03:45:53;10.23;;;4.00;;
5650;SDS011;40241;52.684;9.758;2024-03-23T03:48:19;6.80;;;4.60;;
5650;SDS011;40241;52.684;9.758;2024-03-23T03:50:45;7.17;;;3.60;;
5650;SDS011;40241;52.684;9.758;2024-03-23T03:53:10;10.70;;;3.97;;
5650;SDS011;40241;52.684;9.758;2024-03-23T03:55:36;22.27;;;4.73;;
5650;SDS011;40241;52.684;9.758;2024-03-23T03:58:01;6.90;;;3.90;;
5650;SDS011;40241;52.684;9.758;2024-03-23T04:00:27;6.60;;;3.50;;
5650;SDS011;40241;52.684;9.758;2024-03-23T04:02:52;6.40;;;3.77;;
5650;SDS011;40241;52.684;9.758;2024-03-23T04:05:17;5.43;;;4.40;;
5650;SDS011;40241;52.684;9.758;2024-03-23T04:07:44;8.77;;;4.37;;
5650;SDS011;40241;52.684;9.758;2024-03-23T04:10:09;6.50;;;3.93;;
5650;SDS011;40241;52.684;9.758;2024-03-23T04:12:35;7.83;;;4.20;;
5650;SDS011;40241;52.684;9.758;2024-03-23T04:15:00;9.43;;;4.50;;
5650;SDS011;40241;52.684;9.758;2024-03-23T04:17:28;6.80;;;3.70;;
5650;SDS011;40241;52.684;9.758;2024-03-23T04:19:56;6.50;;;4.10;;
5650;SDS011;40241;52.684;9.758;2024-03-23T04:22:22;7.90;;;4.20;;
5650;SDS011;40241;52.684;9.758;2024-03-23T04:24:49;8.37;;;4.07;;
5650;SDS011;40241;52.684;9.758;2024-03-23T04:27:15;8.60;;;3.70;;
5650;SDS011;40241;52.684;9.758;2024-03-23T04:29:40;15.83;;;4.27;;
5650;SDS011;40241;52.684;9.758;2024-03-23T04:32:05;8.97;;;3.70;;
5650;SDS011;40241;52.684;9.758;2024-03-23T04:34:31;7.87;;;4.20;;
5650;SDS011;40241;52.684;9.758;2024-03-23T04:36:57;10.80;;;4.67;;
5650;SDS011;40241;52.684;9.758;2024-03-23T04:39:23;11.17;;;4.50;;
5650;SDS011;40241;52.684;9.758;2024-03-23T04:41:48;8.47;;;3.80;;
5650;SDS011;40241;52.684;9.758;2024-03-23T04:44:15;12.30;;;3.87;;
5650;SDS011;40241;52.684;9.758;2024-03-23T04:46:40;6.27;;;3.63;;
5650;SDS011;40241;52.684;9.758;2024-03-23T04:49:05;7.27;;;4.17;;
5650;SDS011;40241;52.684;9.758;2024-03-23T04:51:35;13.00;;;3.60;;
5650;SDS011;40241;52.684;9.758;2024-03-23T04:54:02;5.73;;;3.30;;
5650;SDS011;40241;52.684;9.758;2024-03-23T04:56:27;5.37;;;3.13;;
5650;SDS011;40241;52.684;9.758;2024-03-23T04:58:53;8.40;;;3.73;;
5650;SDS011;40241;52.684;9.758;2024-03-23T05:01:19;10.30;;;3.63;;
5650;SDS011;40241;52.684;9.758;2024-03-23T05:03:44;10.70;;;3.63;;
5650;SDS011;40241;52.684;9.758;2024-03-23T05:06:09;10.23;;;3.80;;
5650;SDS011;40241;52.684;9.758;2024-03-23T05:08:35;6.03;;;3.10;;
5650;SDS011;40241;52.684;9.758;2024-03-23T05:11:00;9.30;;;3.03;;
5650;SDS011;40241;52.684;9.758;2024-03-23T05:13:25;6.77;;;3.20;;
5650;SDS011;40241;52.684;9.758;2024-03-23T05:15:54;10.10;;;3.13;;
5650;SDS011;40241;52.684;9.758;2024-03-23T05:18:20;5.90;;;2.13;;
5650;SDS011;40241;52.684;9.758;2024-03-23T05:20:46;6.57;;;2.53;;
5650;SDS011;40241;52.684;9.758;2024-03-23T05:23:11;5.60;;;2.60;;
5650;SDS011;40241;52.684;9.758;2024-03-23T05:25:36;7.37;;;3.00;;
5650;SDS011;40241;52.684;9.758;2024-03-23T05:28:02;6.87;;;2.73;;
5650;SDS011;40241;52.684;9.758;2024-03-23T05:30:27;8.30;;;2.57;;
5650;SDS011;40241;52.684;9.758;2024-03-23T05:32:53;5.73;;;2.73;;
5650;SDS011;40241;52.684;9.758;2024-03-23T05:35:19;11.23;;;2.50;;
5650;SDS011;40241;52.684;9.758;2024-03-23T05:37:44;5.47;;;2.73;;
5650;SDS011;40241;52.684;9.758;2024-03-23T05:40:09;3.40;;;2.50;;
5650;SDS011;40241;52.684;9.758;2024-03-23T05:42:35;7.73;;;3.57;;
5650;SDS011;40241;52.684;9.758;2024-03-23T05:45:01;11.07;;;3.27;;
5650;SDS011;40241;52.684;9.758;2024-03-23T05:47:26;6.33;;;2.57;;
5650;SDS011;40241;52.684;9.758;2024-03-23T05:49:51;6.77;;;2.70;;
5650;SDS011;40241;52.684;9.758;2024-03-23T05:52:17;9.80;;;3.40;;
5650;SDS011;40241;52.684;9.758;2024-03-23T05:54:42;9.57;;;2.80;;
5650;SDS011;40241;52.684;9.758;2024-03-23T05:57:08;11.00;;;3.40;;
5650;SDS011;40241;52.684;9.758;2024-03-23T05:59:34;8.80;;;2.83;;
5650;SDS011;40241;52.684;9.758;2024-03-23T06:01:59;9.57;;;2.80;;
5650;SDS011;40241;52.684;9.758;2024-03-23T06:04:25;8.27;;;3.13;;
5650;SDS011;40241;52.684;9.758;2024-03-23T06:06:53;6.80;;;2.90;;
5650;SDS011;40241;52.684;9.758;2024-03-23T06:09:18;4.43;;;2.50;;
5650;SDS011;40241;52.684;9.758;2024-03-23T06:11:48;6.63;;;2.57;;
5650;SDS011;40241;52.684;9.758;2024-03-23T06:14:13;6.60;;;2.93;;
5650;SDS011;40241;52.684;9.758;2024-03-23T06:16:39;8.80;;;2.40;;
5650;SDS011;40241;52.684;9.758;2024-03-23T06:19:04;2.87;;;2.13;;
5650;SDS011;40241;52.684;9.758;2024-03-23T06:21:31;10.57;;;3.30;;
5650;SDS011;40241;52.684;9.758;2024-03-23T06:23:57;6.60;;;2.60;;
5650;SDS011;40241;52.684;9.758;2024-03-23T06:26:23;6.47;;;2.70;;
5650;SDS011;40241;52.684;9.758;2024-03-23T06:28:48;4.90;;;3.30;;
5650;SDS011;40241;52.684;9.758;2024-03-23T06:31:14;5.60;;;3.23;;
5650;SDS011;40241;52.684;9.758;2024-03-23T06:33:39;7.13;;;3.23;;
5650;SDS011;40241;52.684;9.758;2024-03-23T06:36:07;9.90;;;2.97;;
5650;SDS011;40241;52.684;9.758;2024-03-23T06:38:34;6.20;;;2.70;;
5650;SDS011;40241;52.684;9.758;2024-03-23T06:41:02;8.00;;;3.67;;
5650;SDS011;40241;52.684;9.758;2024-03-23T06:43:27;6.93;;;3.70;;
5650;SDS011;40241;52.684;9.758;2024-03-23T06:45:53;6.97;;;2.80;;
5650;SDS011;40241;52.684;9.758;2024-03-23T06:48:19;4.77;;;2.30;;
5650;SDS011;40241;52.684;9.758;2024-03-23T06:50:45;6.97;;;3.63;;
5650;SDS011;40241;52.684;9.758;2024-03-23T06:53:11;14.07;;;3.17;;
5650;SDS011;40241;52.684;9.758;2024-03-23T06:55:37;11.63;;;3.67;;
5650;SDS011;40241;52.684;9.758;2024-03-23T06:58:02;4.73;;;2.90;;
5650;SDS011;40241;52.684;9.758;2024-03-23T07:00:28;9.07;;;3.60;;
5650;SDS011;40241;52.684;9.758;2024-03-23T07:02:53;13.07;;;3.50;;
5650;SDS011;40241;52.684;9.758;2024-03-23T07:05:18;10.60;;;3.70;;
5650;SDS011;40241;52.684;9.758;2024-03-23T07:07:44;14.63;;;3.30;;
5650;SDS011;40241;52.684;9.758;2024-03-23T07:10:09;6.67;;;3.50;;
5650;SDS011;40241;52.684;9.758;2024-03-23T07:12:34;9.90;;;3.53;;
5650;SDS011;40241;52.684;9.758;2024-03-23T07:15:00;12.00;;;3.60;;
5650;SDS011;40241;52.684;9.758;2024-03-23T07:17:25;10.70;;;3.70;;
5650;SDS011;40241;52.684;9.758;2024-03-23T07:19:50;6.93;;;4.00;;
5650;SDS011;40241;52.684;9.758;2024-03-23T07:22:15;8.97;;;3.57;;
5650;SDS011;40241;52.684;9.758;2024-03-23T07:24:41;13.30;;;5.10;;
5650;SDS011;40241;52.684;9.758;2024-03-23T07:27:06;9.83;;;3.23;;
5650;SDS011;40241;52.684;9.758;2024-03-23T07:29:35;13.57;;;3.97;;
5650;SDS011;40241;52.684;9.758;2024-03-23T07:32:00;8.90;;;3.40;;
5650;SDS011;40241;52.684;9.758;2024-03-23T07:34:26;10.70;;;3.50;;
5650;SDS011;40241;52.684;9.758;2024-03-23T07:36:51;9.87;;;3.47;;
5650;SDS011;40241;52.684;9.758;2024-03-23T07:39:16;9.40;;;3.77;;
5650;SDS011;40241;52.684;9.758;2024-03-23T07:41:44;8.60;;;2.90;;
5650;SDS011;40241;52.684;9.758;2024-03-23T07:44:10;9.73;;;4.30;;
5650;SDS011;40241;52.684;9.758;2024-03-23T07:46:35;6.53;;;3.40;;
5650;SDS011;40241;52.684;9.758;2024-03-23T07:49:01;10.17;;;3.93;;
5650;SDS011;40241;52.684;9.758;2024-03-23T07:51:26;6.07;;;2.90;;
5650;SDS011;40241;52.684;9.758;2024-03-23T07:53:51;11.57;;;3.83;;
5650;SDS011;40241;52.684;9.758;2024-03-23T07:56:18;12.60;;;4.57;;
5650;SDS011;40241;52.684;9.758;2024-03-23T07:58:44;13.20;;;3.30;;
5650;SDS011;40241;52.684;9.758;2024-03-23T08:03:40;7.47;;;3.50;;
5650;SDS011;40241;52.684;9.758;2024-03-23T08:06:08;9.43;;;3.70;;
5650;SDS011;40241;52.684;9.758;2024-03-23T08:08:34;11.30;;;4.63;;
5650;SDS011;40241;52.684;9.758;2024-03-23T08:11:00;8.87;;;3.43;;
5650;SDS011;40241;52.684;9.758;2024-03-23T08:13:26;11.93;;;3.60;;
5650;SDS011;40241;52.684;9.758;2024-03-23T08:15:51;11.77;;;3.97;;
5650;SDS011;40241;52.684;9.758;2024-03-23T08:18:17;11.30;;;3.53;;
5650;SDS011;40241;52.684;9.758;2024-03-23T08:20:42;10.13;;;2.63;;
5650;SDS011;40241;52.684;9.758;2024-03-23T08:23:08;11.30;;;3.40;;
5650;SDS011;40241;52.684;9.758;2024-03-23T08:25:33;9.63;;;3.40;;
5650;SDS011;40241;52.684;9.758;2024-03-23T08:27:59;8.83;;;3.73;;
5650;SDS011;40241;52.684;9.758;2024-03-23T08:30:25;13.83;;;3.40;;
5650;SDS011;40241;52.684;9.758;2024-03-23T08:32:51;10.80;;;3.50;;
5650;SDS011;40241;52.684;9.758;2024-03-23T08:35:16;9.03;;;3.17;;
5650;SDS011;40241;52.684;9.758;2024-03-23T08:37:42;12.40;;;3.30;;
5650;SDS011;40241;52.684;9.758;2024-03-23T08:40:07;13.30;;;3.13;;
5650;SDS011;40241;52.684;9.758;2024-03-23T08:42:33;9.17;;;3.27;;
5650;SDS011;40241;52.684;9.758;2024-03-23T08:44:59;11.90;;;3.77;;
5650;SDS011;40241;52.684;9.758;2024-03-23T08:47:24;7.30;;;3.50;;
5650;SDS011;40241;52.684;9.758;2024-03-23T08:49:49;7.00;;;2.97;;
5650;SDS011;40241;52.684;9.758;2024-03-23T08:52:15;9.67;;;3.30;;
5650;SDS011;40241;52.684;9.758;2024-03-23T08:54:40;8.87;;;2.80;;
5650;SDS011;40241;52.684;9.758;2024-03-23T08:57:05;12.87;;;3.50;;
5650;SDS011;40241;52.684;9.758;2024-03-23T08:59:32;8.73;;;2.90;;
5650;SDS011;40241;52.684;9.758;2024-03-23T09:01:57;10.87;;;3.87;;
5650;SDS011;40241;52.684;9.758;2024-03-23T09:04:23;14.53;;;3.00;;
5650;SDS011;40241;52.684;9.758;2024-03-23T09:06:48;10.37;;;3.10;;
5650;SDS011;40241;52.684;9.758;2024-03-23T09:09:14;9.20;;;2.63;;
5650;SDS011;40241;52.684;9.758;2024-03-23T09:11:40;12.23;;;3.33;;
5650;SDS011;40241;52.684;9.758;2024-03-23T09:14:05;7.47;;;3.10;;
5650;SDS011;40241;52.684;9.758;2024-03-23T09:16:30;11.63;;;3.10;;
5650;SDS011;40241;52.684;9.758;2024-03-23T09:18:56;7.20;;;2.77;;
5650;SDS011;40241;52.684;9.758;2024-03-23T09:21:21;10.77;;;3.33;;
5650;SDS011;40241;52.684;9.758;2024-03-23T09:23:46;11.93;;;3.03;;
5650;SDS011;40241;52.684;9.758;2024-03-23T09:26:12;11.13;;;2.80;;
5650;SDS011;40241;52.684;9.758;2024-03-23T09:28:37;9.30;;;3.00;;
5650;SDS011;40241;52.684;9.758;2024-03-23T09:31:03;5.73;;;2.70;;
5650;SDS011;40241;52.684;9.758;2024-03-23T09:33:33;12.67;;;2.93;;
5650;SDS011;40241;52.684;9.758;2024-03-23T09:36:02;10.67;;;3.20;;
5650;SDS011;40241;52.684;9.758;2024-03-23T09:38:32;5.20;;;2.03;;
5650;SDS011;40241;52.684;9.758;2024-03-23T09:40:58;7.77;;;2.50;;
5650;SDS011;40241;52.684;9.758;2024-03-23T09:43:24;14.00;;;3.10;;
5650;SDS011;40241;52.684;9.758;2024-03-23T09:45:49;8.90;;;2.27;;
5650;SDS011;40241;52.684;9.758;2024-03-23T09:48:15;5.53;;;2.37;;
5650;SDS011;40241;52.684;9.758;2024-03-23T09:50:41;10.00;;;2.97;;
5650;SDS011;40241;52.684;9.758;2024-03-23T09:53:08;6.93;;;2.10;;
5650;SDS011;40241;52.684;9.758;2024-03-23T09:55:35;10.10;;;2.30;;
5650;SDS011;40241;52.684;9.758;2024-03-23T09:58:01;9.03;;;2.53;;
5650;SDS011;40241;52.684;9.758;2024-03-23T10:00:26;7.83;;;2.03;;
5650;SDS011;40241;52.684;9.758;2024-03-23T10:02:54;6.37;;;3.10;;
5650;SDS011;40241;52.684;9.758;2024-03-23T10:05:21;8.53;;;3.47;;
5650;SDS011;40241;52.684;9.758;2024-03-23T10:07:52;8.00;;;2.53;;
5650;SDS011;40241;52.684;9.758;2024-03-23T10:10:18;4.93;;;2.13;;
5650;SDS011;40241;52.684;9.758;2024-03-23T10:12:47;5.23;;;1.70;;
5650;SDS011;40241;52.684;9.758;2024-03-23T10:15:19;2.50;;;1.40;;
5650;SDS011;40241;52.684;9.758;2024-03-23T10:17:46;3.63;;;1.50;;
5650;SDS011;40241;52.684;9.758;2024-03-23T10:20:11;6.00;;;2.23;;
5650;SDS011;40241;52.684;9.758;2024-03-23T10:22:38;4.70;;;1.80;;
5650;SDS011;40241;52.684;9.758;2024-03-23T10:25:07;3.63;;;1.70;;
5650;SDS011;40241;52.684;9.758;2024-03-23T10:27:36;5.80;;;1.70;;
5650;SDS011;40241;52.684;9.758;2024-03-23T10:30:08;4.27;;;1.90;;
5650;SDS011;40241;52.684;9.758;2024-03-23T10:32:38;3.87;;;1.40;;
5650;SDS011;40241;52.684;9.758;2024-03-23T10:35:24;2.90;;;1.60;;
5650;SDS011;40241;52.684;9.758;2024-03-23T10:37:49;1.87;;;1.20;;
5650;SDS011;40241;52.684;9.758;2024-03-23T10:40:16;3.33;;;1.00;;
5650;SDS011;40241;52.684;9.758;2024-03-23T10:42:43;2.73;;;0.70;;
5650;SDS011;40241;52.684;9.758;2024-03-23T10:45:09;3.53;;;1.07;;
5650;SDS011;40241;52.684;9.758;2024-03-23T10:47:35;2.40;;;0.80;;
5650;SDS011;40241;52.684;9.758;2024-03-23T10:50:01;1.33;;;0.80;;
5650;SDS011;40241;52.684;9.758;2024-03-23T10:52:34;2.10;;;0.67;;
5650;SDS011;40241;52.684;9.758;2024-03-23T10:55:04;1.20;;;0.70;;
5650;SDS011;40241;52.684;9.758;2024-03-23T10:57:37;0.93;;;0.60;;
5650;SDS011;40241;52.684;9.758;2024-03-23T11:00:08;0.90;;;0.50;;
5650;SDS011;40241;52.684;9.758;2024-03-23T11:02:35;1.13;;;0.60;;
5650;SDS011;40241;52.684;9.758;2024-03-23T11:05:01;1.30;;;0.63;;
5650;SDS011;40241;52.684;9.758;2024-03-23T11:09:51;2.20;;;0.90;;
5650;SDS011;40241;52.684;9.758;2024-03-23T11:14:52;2.10;;;1.13;;
5650;SDS011;40241;52.684;9.758;2024-03-23T11:17:19;1.30;;;1.20;;
5650;SDS011;40241;52.684;9.758;2024-03-23T11:19:52;2.07;;;1.10;;
5650;SDS011;40241;52.684;9.758;2024-03-23T11:22:37;1.17;;;0.90;;
5650;SDS011;40241;52.684;9.758;2024-03-23T11:27:40;3.77;;;1.20;;
5650;SDS011;40241;52.684;9.758;2024-03-23T11:30:24;1.40;;;1.10;;
5650;SDS011;40241;52.684;9.758;2024-03-23T11:32:51;2.70;;;1.23;;
5650;SDS011;40241;52.684;9.758;2024-03-23T11:35:24;2.03;;;1.13;;
5650;SDS011;40241;52.684;9.758;2024-03-23T11:40:29;2.80;;;1.00;;
5650;SDS011;40241;52.684;9.758;2024-03-23T11:43:04;2.03;;;1.20;;
5650;SDS011;40241;52.684;9.758;2024-03-23T11:46:04;4.30;;;1.73;;
5650;SDS011;40241;52.684;9.758;2024-03-23T11:48:23;1.57;;;0.90;;
5650;SDS011;40241;52.684;9.758;2024-03-23T11:50:49;2.73;;;0.87;;
5650;SDS011;40241;52.684;9.758;2024-03-23T11:53:17;2.00;;;0.90;;
5650;SDS011;40241;52.684;9.758;2024-03-23T11:55:55;0.83;;;0.57;;
5650;SDS011;40241;52.684;9.758;2024-03-23T11:58:22;0.63;;;0.63;;
5650;SDS011;40241;52.684;9.758;2024-03-23T12:00:52;1.17;;;1.03;;
5650;SDS011;40241;52.684;9.758;2024-03-23T12:03:23;1.60;;;1.03;;
5650;SDS011;40241;52.684;9.758;2024-03-23T12:05:54;1.70;;;1.00;;
5650;SDS011;40241;52.684;9.758;2024-03-23T12:10:53;4.80;;;1.23;;
5650;SDS011;40241;52.684;9.758;2024-03-23T12:13:29;0.57;;;0.50;;
5650;SDS011;40241;52.684;9.758;2024-03-23T12:15:54;2.10;;;0.80;;
5650;SDS011;40241;52.684;9.758;2024-03-23T12:18:23;2.10;;;0.70;;
5650;SDS011;40241;52.684;9.758;2024-03-23T12:20:49;0.73;;;0.60;;
5650;SDS011;40241;52.684;9.758;2024-03-23T12:23:15;1.13;;;0.60;;
5650;SDS011;40241;52.684;9.758;2024-03-23T12:25:40;2.00;;;0.93;;
5650;SDS011;40241;52.684;9.758;2024-03-23T12:28:06;1.70;;;0.70;;
5650;SDS011;40241;52.684;9.758;2024-03-23T12:30:40;1.80;;;0.50;;
5650;SDS011;40241;52.684;9.758;2024-03-23T12:33:06;1.00;;;0.60;;
5650;SDS011;40241;52.684;9.758;2024-03-23T12:35:32;0.83;;;0.40;;
5650;SDS011;40241;52.684;9.758;2024-03-23T12:37:58;1.57;;;0.40;;
5650;SDS011;40241;52.684;9.758;2024-03-23T12:40:23;1.47;;;0.50;;
5650;SDS011;40241;52.684;9.758;2024-03-23T12:42:49;2.60;;;0.67;;
5650;SDS011;40241;52.684;9.758;2024-03-23T12:45:14;0.57;;;0.50;;
5650;SDS011;40241;52.684;9.758;2024-03-23T12:47:40;0.67;;;0.60;;
5650;SDS011;40241;52.684;9.758;2024-03-23T12:50:06;0.60;;;0.50;;
5650;SDS011;40241;52.684;9.758;2024-03-23T12:52:32;1.37;;;0.60;;
5650;SDS011;40241;52.684;9.758;2024-03-23T12:54:58;2.00;;;0.60;;
5650;SDS011;40241;52.684;9.758;2024-03-23T12:57:23;3.37;;;0.60;;
5650;SDS011;40241;52.684;9.758;2024-03-23T12:59:49;1.00;;;0.63;;
5650;SDS011;40241;52.684;9.758;2024-03-23T13:02:21;1.73;;;0.70;;
5650;SDS011;40241;52.684;9.758;2024-03-23T13:04:49;1.93;;;0.87;;
5650;SDS011;40241;52.684;9.758;2024-03-23T13:07:15;1.70;;;0.80;;
5650;SDS011;40241;52.684;9.758;2024-03-23T13:09:41;2.00;;;0.60;;
5650;SDS011;40241;52.684;9.758;2024-03-23T13:12:06;0.90;;;0.67;;
5650;SDS011;40241;52.684;9.758;2024-03-23T13:14:32;2.30;;;1.03;;
5650;SDS011;40241;52.684;9.758;2024-03-23T13:16:57;1.03;;;0.80;;
5650;SDS011;40241;52.684;9.758;2024-03-23T13:19:23;2.03;;;1.00;;
5650;SDS011;40241;52.684;9.758;2024-03-23T13:21:52;2.30;;;0.90;;
5650;SDS011;40241;52.684;9.758;2024-03-23T13:24:23;2.50;;;0.80;;
5650;SDS011;40241;52.684;9.758;2024-03-23T13:26:49;0.90;;;0.70;;
5650;SDS011;40241;52.684;9.758;2024-03-23T13:29:18;2.83;;;0.80;;
5650;SDS011;40241;52.684;9.758;2024-03-23T13:31:44;2.50;;;1.07;;
5650;SDS011;40241;52.684;9.758;2024-03-23T13:34:10;1.10;;;0.67;;
5650;SDS011;40241;52.684;9.758;2024-03-23T13:36:36;1.13;;;0.93;;
5650;SDS011;40241;52.684;9.758;2024-03-23T13:39:02;4.50;;;1.00;;
5650;SDS011;40241;52.684;9.758;2024-03-23T13:41:32;2.40;;;0.93;;
5650;SDS011;40241;52.684;9.758;2024-03-23T13:43:58;2.40;;;1.03;;
5650;SDS011;40241;52.684;9.758;2024-03-23T13:46:23;2.20;;;1.00;;
5650;SDS011;40241;52.684;9.758;2024-03-23T13:48:48;3.40;;;1.13;;
5650;SDS011;40241;52.684;9.758;2024-03-23T13:51:14;2.00;;;0.77;;
5650;SDS011;40241;52.684;9.758;2024-03-23T13:53:39;1.53;;;1.37;;
5650;SDS011;40241;52.684;9.758;2024-03-23T13:56:05;0.90;;;0.70;;
5650;SDS011;40241;52.684;9.758;2024-03-23T13:58:30;2.90;;;0.90;;
5650;SDS011;40241;52.684;9.758;2024-03-23T14:00:58;1.80;;;1.07;;
5650;SDS011;40241;52.684;9.758;2024-03-23T14:03:24;1.57;;;0.80;;
5650;SDS011;40241;52.684;9.758;2024-03-23T14:05:49;1.03;;;0.93;;
5650;SDS011;40241;52.684;9.758;2024-03-23T14:08:14;1.77;;;0.67;;
5650;SDS011;40241;52.684;9.758;2024-03-23T14:10:41;1.83;;;0.57;;
5650;SDS011;40241;52.684;9.758;2024-03-23T14:13:07;1.07;;;0.60;;
5650;SDS011;40241;52.684;9.758;2024-03-23T14:15:32;1.63;;;0.53;;
5650;SDS011;40241;52.684;9.758;2024-03-23T14:17:58;1.03;;;0.50;;
5650;SDS011;40241;52.684;9.758;2024-03-23T14:20:24;1.17;;;0.60;;
5650;SDS011;40241;52.684;9.758;2024-03-23T14:22:50;0.60;;;0.40;;
5650;SDS011;40241;52.684;9.758;2024-03-23T14:25:16;0.87;;;0.50;;
5650;SDS011;40241;52.684;9.758;2024-03-23T14:27:45;1.83;;;0.40;;
5650;SDS011;40241;52.684;9.758;2024-03-23T14:30:11;1.80;;;0.57;;
5650;SDS011;40241;52.684;9.758;2024-03-23T14:32:39;0.67;;;0.50;;
5650;SDS011;40241;52.684;9.758;2024-03-23T14:35:05;1.27;;;0.60;;
5650;SDS011;40241;52.684;9.758;2024-03-23T14:37:36;0.97;;;0.43;;
5650;SDS011;40241;52.684;9.758;2024-03-23T14:40:02;0.50;;;0.40;;
5650;SDS011;40241;52.684;9.758;2024-03-23T14:42:28;1.83;;;0.50;;
5650;SDS011;40241;52.684;9.758;2024-03-23T14:44:54;0.90;;;0.60;;
5650;SDS011;40241;52.684;9.758;2024-03-23T14:47:19;0.70;;;0.60;;
5650;SDS011;40241;52.684;9.758;2024-03-23T14:49:46;1.00;;;0.70;;
5650;SDS011;40241;52.684;9.758;2024-03-23T14:52:12;0.97;;;0.60;;
5650;SDS011;40241;52.684;9.758;2024-03-23T14:54:41;0.80;;;0.67;;
5650;SDS011;40241;52.684;9.758;2024-03-23T14:57:07;2.13;;;0.70;;
5650;SDS011;40241;52.684;9.758;2024-03-23T14:59:34;2.60;;;0.93;;
5650;SDS011;40241;52.684;9.758;2024-03-23T15:01:59;0.83;;;0.80;;
5650;SDS011;40241;52.684;9.758;2024-03-23T15:04:25;1.43;;;0.70;;
5650;SDS011;40241;52.684;9.758;2024-03-23T15:06:50;1.10;;;0.80;;
5650;SDS011;40241;52.684;9.758;2024-03-23T15:09:15;1.90;;;0.70;;
5650;SDS011;40241;52.684;9.758;2024-03-23T15:11:41;1.23;;;0.80;;
5650;SDS011;40241;52.684;9.758;2024-03-23T15:14:06;0.73;;;0.73;;
5650;SDS011;40241;52.684;9.758;2024-03-23T15:16:32;2.20;;;1.00;;
5650;SDS011;40241;52.684;9.758;2024-03-23T15:18:57;0.67;;;0.67;;
5650;SDS011;40241;52.684;9.758;2024-03-23T15:21:23;1.30;;;0.70;;
5650;SDS011;40241;52.684;9.758;2024-03-23T15:23:48;1.33;;;0.60;;
5650;SDS011;40241;52.684;9.758;2024-03-23T15:26:13;1.20;;;0.57;;
5650;SDS011;40241;52.684;9.758;2024-03-23T15:28:39;0.50;;;0.40;;
5650;SDS011;40241;52.684;9.758;2024-03-23T15:31:24;0.50;;;0.47;;
5650;SDS011;40241;52.684;9.758;2024-03-23T15:33:50;1.50;;;0.50;;
5650;SDS011;40241;52.684;9.758;2024-03-23T15:36:16;0.77;;;0.60;;
5650;SDS011;40241;52.684;9.758;2024-03-23T15:38:42;0.80;;;0.40;;
5650;SDS011;40241;52.684;9.758;2024-03-23T15:41:08;1.33;;;0.50;;
5650;SDS011;40241;52.684;9.758;2024-03-23T15:43:33;1.10;;;0.50;;
5650;SDS011;40241;52.684;9.758;2024-03-23T15:46:00;1.03;;;0.77;;
5650;SDS011;40241;52.684;9.758;2024-03-23T15:48:30;3.47;;;1.03;;
5650;SDS011;40241;52.684;9.758;2024-03-23T15:53:23;2.20;;;0.80;;
5650;SDS011;40241;52.684;9.758;2024-03-23T15:55:56;2.37;;;0.80;;
5650;SDS011;40241;52.684;9.758;2024-03-23T15:58:29;1.50;;;0.73;;
5650;SDS011;40241;52.684;9.758;2024-03-23T16:00:56;6.97;;;2.30;;
5650;SDS011;40241;52.684;9.758;2024-03-23T16:03:22;11.20;;;3.53;;